LOWI Airport Information

Runway Information
Runway 08 Length 6562 ft width 148 ft
Elevation 1907 ft Threshold 339 ft Heading 81
Runway 26 Length 6562 ft Width 148 ft
Elevation 1894 ft Threshold ft Heading 261
Airport Frequencies
Type APP Name APP Frequency 119.275 MHZ
Type ATIS Name ATIS Frequency 126.025 MHZ
Type TWR Name TWR Frequency 120.1 MHZ
Type GND Crew Name Frequency 121.8 MHZ
Type GND Crew Name Frequency 121.9 MHZ
Airport Navaids
Type NDB Name Innsbruck Frequency 420 KHZ
Type NDB Name Kuhtai Frequency 413 KHZ
Airport Weather Information & NOTAM
ADDS - METARS form results

(2200 UTC 05 October 2022)
Data provider http://aviationweather.gov/metar/data/
 
METAR text: LOWI 052150Z AUTO 26003KT 9999 NCD 09/08 Q1028
Conditions at: LOWI (INNSBRUCK AIRPOR, AT) observed 2150 UTC 05 October 2022
Temperature: 9.0°C (48°F)
Dewpoint: 8.0°C (46°F) [RH = 93%]
Pressure (altimeter): 30.35 inches Hg (1028.0 mb)
Winds: from the W (260 degrees) at 3 MPH (3 knots; 1.5 m/s)
Visibility: 6 or more miles (10+ km)
Ceiling: at least 12,000 feet AGL
Clouds: sky clear below 12,000 feet AGL
Weather: no significant weather observed at this time

METAR text: LOWI 052120Z AUTO 28002KT 9999 NCD 10/08 Q1028
Conditions at: LOWI (INNSBRUCK AIRPOR, AT) observed 2120 UTC 05 October 2022
Temperature: 10.0°C (50°F)
Dewpoint: 8.0°C (46°F) [RH = 87%]
Pressure (altimeter): 30.35 inches Hg (1028.0 mb)
Winds: from the W (280 degrees) at 2 MPH (2 knots; 1.0 m/s)
Visibility: 6 or more miles (10+ km)
Ceiling: at least 12,000 feet AGL
Clouds: sky clear below 12,000 feet AGL
Weather: no significant weather observed at this time

Forecast for: LOWI (INNSBRUCK AIRPOR, AT)
Text: TAF LOWI 051715Z 0518/0618 VRB02KT CAVOK TX21/0614Z TN06/0605Z
Forecast period: 1800 UTC 05 October 2022 to 1800 UTC 06 October 2022
Forecast type: FROM: standard forecast or significant change
Winds: variable direction winds at 2 MPH (2 knots; 1.0 m/s)
Visibility: 6 or more miles (10+ km)
Ceiling: unknown
Clouds: missing
Weather: no significant weather forecast for this period
Text: TEMPO 0603/0606 9999 MIFG NSC
Forecast period: 0300 to 0600 UTC 06 October 2022
Forecast type: TEMPORARY: The following changes expected for less than half the time period
Visibility: 6 or more miles (10+ km)
Ceiling: unknown
Clouds: missing
Weather: MIFG  (shallow fog)